Time;durP1;ratioP1;P1;durP2;ratioP2;P2;SDS_P1;SDS_P2;PMS_P1;PMS_P2;Temp;Humidity;BMP_temperature;BMP_pressure;BME280_temperature;BME280_humidity;BME280_pressure;Samples;Min_cycle;Max_cycle;Signal;HPM_P1;HPM_P2
2024/01/01 00:02:30;;;;;;;103.00;62.40;;;;;;;6.31;69.59;98146.18;232130;198;137893;-64
2024/01/01 00:07:34;;;;;;;101.80;62.00;;;;;;;6.23;69.90;98142.92;232130;204;138845;-63
2024/01/01 00:12:37;;;;;;;109.10;56.30;;;;;;;6.14;70.20;98138.39;232316;201;153288;-64
2024/01/01 00:17:41;;;;;;;91.80;53.00;;;;;;;6.11;70.25;98136.60;232075;198;137768;-63
2024/01/01 00:22:44;;;;;;;92.40;57.30;;;;;;;6.15;70.47;98138.84;231956;204;137823;-62
2024/01/01 00:27:47;;;;;;;96.70;60.10;;;;;;;6.22;70.40;98135.22;232168;198;151526;-63
2024/01/01 00:32:50;;;;;;;96.50;57.00;;;;;;;6.24;70.29;98136.55;232182;204;137087;-63
2024/01/01 00:37:54;;;;;;;85.90;53.20;;;;;;;6.25;70.19;98133.33;232147;201;137718;-63
2024/01/01 00:42:57;;;;;;;81.60;49.50;;;;;;;6.22;70.26;98125.75;232096;201;151209;-61
2024/01/01 00:48:01;;;;;;;93.90;56.90;;;;;;;6.16;70.22;98130.84;232298;197;136541;-62
2024/01/01 00:53:04;;;;;;;89.00;54.60;;;;;;;6.08;70.60;98125.31;231973;201;139595;-64
2024/01/01 00:58:07;;;;;;;83.20;49.70;;;;;;;6.03;70.87;98131.64;231135;201;151335;-63
2024/01/01 01:03:11;;;;;;;77.80;47.60;;;;;;;5.98;70.97;98133.13;231913;198;137918;-62
2024/01/01 01:08:14;;;;;;;84.20;47.30;;;;;;;5.97;71.16;98130.57;232148;201;137590;-64
2024/01/01 01:13:18;;;;;;;85.20;49.70;;;;;;;5.94;71.37;98125.63;232244;202;151551;-64
2024/01/01 01:18:22;;;;;;;73.90;42.30;;;;;;;5.91;71.54;98135.43;232148;201;138715;-64
2024/01/01 01:23:25;;;;;;;69.60;41.90;;;;;;;5.94;71.73;98138.64;231906;198;138204;-64
2024/01/01 01:28:28;;;;;;;73.30;43.90;;;;;;;6.02;71.66;98138.73;231966;204;151479;-64
2024/01/01 01:33:31;;;;;;;73.90;44.40;;;;;;;6.10;71.41;98132.41;231966;198;137723;-64
2024/01/01 01:38:35;;;;;;;77.60;45.60;;;;;;;6.14;71.22;98130.77;232016;198;137570;-65
2024/01/01 01:43:39;;;;;;;72.30;44.00;;;;;;;6.12;71.10;98131.98;232147;201;152070;-65
2024/01/01 01:48:43;;;;;;;73.10;42.30;;;;;;;6.10;71.22;98127.48;232246;198;137332;-64
2024/01/01 01:53:47;;;;;;;66.30;42.00;;;;;;;6.07;71.23;98114.98;232125;201;137505;-64
2024/01/01 01:58:50;;;;;;;70.00;43.00;;;;;;;6.07;71.27;98103.52;232212;204;151513;-65
2024/01/01 02:03:53;;;;;;;70.80;43.50;;;;;;;6.03;71.21;98104.81;231952;198;137687;-62
2024/01/01 02:08:57;;;;;;;75.70;44.00;;;;;;;5.98;71.05;98102.83;232033;202;137535;-64
2024/01/01 02:14:13;;;;;;;63.30;42.90;;;;;;;5.96;71.09;98106.16;231801;198;153908;-63
2024/01/01 02:19:19;;;;;;;;;;;;;;;5.89;70.90;98099.29;231823;201;139371;-63
2024/01/01 02:24:22;;;;;;;66.40;41.90;;;;;;;5.84;70.95;98105.21;231740;197;137309;-63
2024/01/01 02:29:26;;;;;;;66.60;41.80;;;;;;;5.81;70.92;98110.15;232171;204;152381;-63
2024/01/01 02:34:29;;;;;;;70.30;40.70;;;;;;;5.72;70.93;98109.60;231907;204;137732;-63
2024/01/01 02:39:32;;;;;;;67.50;39.50;;;;;;;5.68;71.83;98112.61;232070;204;137446;-64
2024/01/01 02:44:36;;;;;;;63.30;39.40;;;;;;;5.82;72.38;98112.55;231899;204;151614;-64
2024/01/01 02:49:39;;;;;;;71.00;41.80;;;;;;;5.92;71.85;98108.28;231796;205;137366;-62
2024/01/01 02:54:43;;;;;;;65.80;40.70;;;;;;;5.96;71.56;98099.28;232173;197;136764;-64
2024/01/01 02:59:46;;;;;;;72.00;43.40;;;;;;;5.96;71.42;98089.80;232078;204;151644;-64
2024/01/01 03:04:50;;;;;;;69.80;42.20;;;;;;;5.97;71.21;98096.08;231780;198;137087;-64
2024/01/01 03:09:53;;;;;;;70.60;42.30;;;;;;;5.91;71.25;98098.83;232166;197;137506;-63
2024/01/01 03:14:56;;;;;;;66.50;41.80;;;;;;;5.88;71.36;98110.27;232188;204;151867;-64
2024/01/01 03:19:59;;;;;;;67.50;40.50;;;;;;;5.83;71.50;98119.67;232129;197;137578;-65
2024/01/01 03:25:03;;;;;;;64.20;40.10;;;;;;;5.84;71.99;98123.85;232114;204;137892;-63
2024/01/01 03:30:08;;;;;;;64.40;39.80;;;;;;;5.88;71.99;98121.20;231321;204;151548;-64
2024/01/01 03:35:12;;;;;;;58.80;35.90;;;;;;;5.85;71.92;98118.55;232088;204;137400;-63
2024/01/01 03:40:15;;;;;;;57.30;35.20;;;;;;;5.85;71.98;98110.77;232039;204;137210;-64
2024/01/01 03:45:19;;;;;;;63.20;38.50;;;;;;;5.94;71.87;98102.02;232034;200;151964;-64
2024/01/01 03:50:22;;;;;;;64.40;39.30;;;;;;;6.01;71.73;98097.05;232037;197;137755;-63
2024/01/01 03:55:25;;;;;;;64.30;39.50;;;;;;;6.04;71.82;98086.11;232087;202;137513;-64
2024/01/01 04:00:29;;;;;;;61.00;38.40;;;;;;;6.06;71.85;98075.09;232267;204;151472;-61
2024/01/01 04:05:32;;;;;;;63.60;38.30;;;;;;;6.04;71.77;98069.92;231940;204;137067;-64
2024/01/01 04:10:35;;;;;;;59.10;38.20;;;;;;;6.01;71.84;98063.41;232116;198;138495;-64
2024/01/01 04:15:39;;;;;;;63.80;37.80;;;;;;;5.96;71.82;98064.97;232077;204;151193;-63
2024/01/01 04:20:42;;;;;;;59.10;38.30;;;;;;;5.94;71.73;98056.77;232079;204;138672;-63
2024/01/01 04:25:45;;;;;;;61.70;37.80;;;;;;;5.96;71.91;98052.80;232179;204;137745;-65
2024/01/01 04:30:49;;;;;;;59.10;36.20;;;;;;;5.96;71.98;98051.20;232172;204;151527;-63
2024/01/01 04:35:52;;;;;;;58.70;34.10;;;;;;;5.96;72.41;98046.83;231996;200;137220;-64
2024/01/01 04:40:55;;;;;;;55.90;31.50;;;;;;;5.99;72.38;98049.12;232045;200;137441;-63
2024/01/01 04:45:58;;;;;;;52.90;33.00;;;;;;;6.06;72.43;98052.55;232049;204;151251;-64
2024/01/01 04:51:01;;;;;;;50.00;29.90;;;;;;;6.19;72.47;98052.85;231965;200;137276;-64
2024/01/01 04:56:05;;;;;;;54.20;32.30;;;;;;;6.23;72.33;98052.94;231989;202;137195;-64
2024/01/01 05:01:08;;;;;;;56.60;34.00;;;;;;;6.31;72.38;98045.20;232166;198;152012;-67
2024/01/01 05:06:11;;;;;;;54.00;34.90;;;;;;;6.35;72.06;98039.89;232401;204;137504;-63
2024/01/01 05:11:15;;;;;;;57.10;35.30;;;;;;;6.37;72.18;98033.41;232266;204;137837;-63
2024/01/01 05:16:19;;;;;;;59.00;35.00;;;;;;;6.40;72.21;98027.27;232071;202;151688;-63
2024/01/01 05:21:22;;;;;;;54.40;33.80;;;;;;;6.41;72.09;98023.29;232108;197;137598;-62
2024/01/01 05:26:25;;;;;;;52.90;34.80;;;;;;;6.45;72.18;98027.50;232182;198;137703;-64
2024/01/01 05:31:29;;;;;;;51.50;32.00;;;;;;;6.43;72.02;98023.04;232331;201;151689;-66
2024/01/01 05:36:32;;;;;;;51.00;31.90;;;;;;;6.47;72.05;98013.79;232309;200;137404;-69
2024/01/01 05:41:35;;;;;;;55.10;34.40;;;;;;;6.56;71.93;98006.48;231672;198;138014;-65
2024/01/01 05:46:38;;;;;;;51.40;31.40;;;;;;;6.69;71.84;98004.49;232208;204;153727;-65
2024/01/01 05:51:41;;;;;;;46.30;29.50;;;;;;;6.79;71.58;97996.41;231459;204;137774;-66
2024/01/01 05:56:45;;;;;;;43.70;28.60;;;;;;;6.87;71.44;97997.13;232084;204;137336;-66
2024/01/01 06:01:48;;;;;;;46.40;28.80;;;;;;;6.97;71.38;97989.84;232099;204;151538;-64
2024/01/01 06:06:51;;;;;;;49.30;30.40;;;;;;;7.03;71.39;97978.66;232419;201;136597;-65
2024/01/01 06:11:54;;;;;;;51.40;28.80;;;;;;;7.07;71.19;97980.02;232051;201;137028;-59
2024/01/01 06:16:58;;;;;;;49.40;29.60;;;;;;;7.05;71.08;97988.80;232126;198;152050;-64
2024/01/01 06:22:01;;;;;;;47.60;31.90;;;;;;;7.03;71.24;97977.08;232078;200;137039;-64
2024/01/01 06:27:05;;;;;;;50.20;31.40;;;;;;;6.99;71.18;97977.69;232139;204;136973;-64
2024/01/01 06:32:08;;;;;;;48.50;30.50;;;;;;;6.98;71.12;97972.84;232222;197;151695;-64
2024/01/01 06:37:12;;;;;;;54.30;34.90;;;;;;;7.02;70.92;97972.20;232028;200;137350;-64
2024/01/01 06:42:16;;;;;;;45.70;28.40;;;;;;;7.06;71.01;97982.00;232099;201;137912;-64
2024/01/01 06:47:22;;;;;;;46.90;27.60;;;;;;;7.16;71.07;97988.80;232254;197;151621;-64
2024/01/01 06:52:25;;;;;;;46.90;29.00;;;;;;;7.22;70.93;98002.66;232329;200;138223;-63
2024/01/01 06:57:28;;;;;;;46.80;29.30;;;;;;;7.18;71.05;98015.07;232240;204;136735;-64
2024/01/01 07:02:31;;;;;;;48.50;30.50;;;;;;;7.19;71.26;98031.27;232142;204;151698;-66
2024/01/01 07:07:34;;;;;;;59.00;33.40;;;;;;;7.18;71.16;98040.28;232045;204;138211;-66
2024/01/01 07:12:38;;;;;;;56.30;35.50;;;;;;;7.18;71.25;98039.98;232164;201;136850;-64
2024/01/01 07:17:42;;;;;;;53.50;32.10;;;;;;;7.19;71.37;98041.12;232165;204;151433;-67
2024/01/01 07:22:46;;;;;;;49.20;30.20;;;;;;;7.22;71.64;98050.51;232017;204;139601;-65
2024/01/01 07:27:50;;;;;;;57.60;34.90;;;;;;;7.24;71.90;98048.06;232110;201;138341;-66
2024/01/01 07:32:55;;;;;;;54.20;35.60;;;;;;;7.23;71.87;98035.44;232152;204;151363;-64
2024/01/01 07:37:58;;;;;;;52.70;34.70;;;;;;;7.21;72.26;98030.81;232165;204;140469;-65
2024/01/01 07:43:04;;;;;;;53.00;32.70;;;;;;;7.22;72.65;98023.86;232209;201;137927;-65
2024/01/01 07:48:09;;;;;;;48.00;32.60;;;;;;;7.19;72.93;98028.27;232215;202;151559;-64
2024/01/01 07:53:13;;;;;;;51.80;33.60;;;;;;;7.13;73.14;98033.92;231824;205;141913;-65
2024/01/01 07:58:17;;;;;;;49.30;30.90;;;;;;;7.12;73.55;98040.69;232034;204;138638;-66
2024/01/01 08:03:21;;;;;;;48.40;29.70;;;;;;;7.14;73.66;98034.95;232031;204;154578;-65
2024/01/01 08:08:24;;;;;;;53.20;33.40;;;;;;;7.18;73.95;98032.23;231995;204;138888;-64
2024/01/01 08:13:28;;;;;;;54.30;34.80;;;;;;;7.26;74.10;98030.13;231845;202;138957;-67
2024/01/01 08:18:31;;;;;;;56.20;34.80;;;;;;;7.35;74.01;98035.51;231557;204;153104;-66
2024/01/01 08:23:34;;;;;;;46.70;31.20;;;;;;;7.32;73.98;98038.89;231876;201;138369;-65
2024/01/01 08:28:37;;;;;;;52.50;32.40;;;;;;;7.22;74.23;98037.02;232128;201;138435;-66
2024/01/01 08:33:41;;;;;;;48.30;31.70;;;;;;;7.22;74.28;98039.14;231602;198;153395;-64
2024/01/01 08:38:44;;;;;;;50.20;30.20;;;;;;;7.21;74.50;98032.58;232163;204;138321;-66
2024/01/01 08:43:56;;;;;;;46.60;29.40;;;;;;;7.21;74.48;98032.04;232174;204;138402;-65
2024/01/01 08:49:00;;;;;;;49.40;31.40;;;;;;;7.11;74.57;98032.47;232147;204;154066;-64
2024/01/01 08:54:07;;;;;;;44.90;30.10;;;;;;;7.16;74.57;98032.50;232150;197;137941;-68
2024/01/01 08:59:15;;;;;;;48.50;30.60;;;;;;;7.13;74.31;98025.61;231825;197;138110;-67
2024/01/01 09:04:19;;;;;;;46.60;29.90;;;;;;;7.08;74.48;98028.42;232071;198;154358;-65
2024/01/01 09:09:22;;;;;;;43.40;28.30;;;;;;;7.07;74.63;98033.41;231674;204;138701;-66
2024/01/01 09:14:25;;;;;;;40.20;24.30;;;;;;;7.12;74.44;98033.13;232096;198;138351;-68
2024/01/01 09:19:28;;;;;;;36.10;22.00;;;;;;;7.15;74.09;98039.09;231685;204;154135;-66
2024/01/01 09:24:32;;;;;;;34.20;22.70;;;;;;;7.06;73.79;98040.57;232229;197;139026;-65
2024/01/01 09:29:35;;;;;;;31.90;20.90;;;;;;;7.03;73.93;98038.80;232114;202;138642;-63
2024/01/01 09:34:39;;;;;;;30.60;19.60;;;;;;;7.01;73.48;98027.29;231805;201;153577;-63
2024/01/01 09:39:43;;;;;;;28.30;18.10;;;;;;;6.96;73.74;98023.38;231762;202;138498;-67
2024/01/01 09:44:49;;;;;;;29.60;19.30;;;;;;;6.91;73.60;98027.79;231887;198;138660;-66
2024/01/01 09:49:52;;;;;;;28.20;18.50;;;;;;;6.87;73.72;98023.94;231640;197;153181;-63
2024/01/01 09:54:58;;;;;;;27.70;17.80;;;;;;;6.84;73.85;98024.84;232032;198;137495;-64
2024/01/01 10:00:05;;;;;;;28.30;17.20;;;;;;;6.83;73.98;98025.27;231997;204;139102;-63
2024/01/01 10:05:15;;;;;;;30.10;18.70;;;;;;;6.81;73.98;98030.11;232139;198;153312;-67
2024/01/01 10:10:28;;;;;;;21.60;13.50;;;;;;;6.82;73.71;98038.19;231953;198;140964;-61
2024/01/01 10:15:31;;;;;;;11.60;8.00;;;;;;;6.83;72.86;98042.02;231758;197;138835;-59
2024/01/01 10:20:35;;;;;;;12.50;8.50;;;;;;;6.77;72.42;98042.04;232061;200;153526;-61
2024/01/01 10:25:38;;;;;;;7.40;4.10;;;;;;;6.63;71.48;98042.90;231924;201;137980;-63
2024/01/01 10:30:47;;;;;;;5.80;3.80;;;;;;;6.30;70.85;98046.54;232205;204;138634;-62
2024/01/01 10:35:52;;;;;;;6.80;4.10;;;;;;;6.03;71.32;98046.08;231911;204;153664;-64
2024/01/01 10:40:56;;;;;;;6.80;4.70;;;;;;;5.90;71.34;98046.41;231976;204;138032;-61
2024/01/01 10:46:04;;;;;;;8.80;4.90;;;;;;;5.68;71.55;98042.25;231734;197;138004;-61
2024/01/01 10:51:21;;;;;;;7.00;4.60;;;;;;;5.61;71.64;98043.89;232073;204;157205;-60
2024/01/01 10:56:51;;;;;;;6.00;4.20;;;;;;;5.57;71.64;98041.11;232067;204;137510;-57
2024/01/01 11:01:55;;;;;;;5.80;4.00;;;;;;;5.53;71.25;98039.27;232099;201;138018;-61
2024/01/01 11:07:02;;;;;;;6.70;3.60;;;;;;;5.32;71.05;98039.43;231756;204;153138;-60
2024/01/01 11:12:05;;;;;;;3.70;3.00;;;;;;;5.22;71.07;98039.80;232180;197;142129;-60
2024/01/01 11:17:10;;;;;;;8.50;5.40;;;;;;;5.11;71.03;98044.84;231974;204;137634;-60
2024/01/01 11:22:19;;;;;;;4.20;2.70;;;;;;;4.90;71.17;98043.35;231823;198;153135;-59
2024/01/01 11:27:24;;;;;;;3.70;2.50;;;;;;;4.84;71.36;98044.38;231840;204;142203;-61
2024/01/01 11:32:29;;;;;;;3.40;2.10;;;;;;;4.86;71.39;98041.80;231843;204;138569;-60
2024/01/01 11:37:33;;;;;;;3.10;2.30;;;;;;;4.79;71.15;98042.89;231971;204;155116;-60
2024/01/01 11:42:38;;;;;;;3.50;2.50;;;;;;;4.71;71.53;98052.45;231906;204;138765;-59
2024/01/01 11:47:43;;;;;;;4.10;2.80;;;;;;;4.67;71.67;98051.95;231408;199;138192;-60
2024/01/01 11:52:58;;;;;;;;;;;;;;;4.62;71.72;98053.66;232011;198;153683;-60
2024/01/01 11:58:01;;;;;;;4.10;2.90;;;;;;;4.49;71.97;98053.63;231890;197;137814;-59
2024/01/01 12:03:05;;;;;;;3.70;2.50;;;;;;;4.41;72.15;98060.89;231923;198;137182;-52
2024/01/01 12:08:12;;;;;;;4.40;2.80;;;;;;;4.36;72.66;98063.46;232123;201;154309;-50
2024/01/01 12:13:15;;;;;;;4.30;3.20;;;;;;;4.46;72.65;98067.33;231989;201;234991;-47
2024/01/01 12:18:19;;;;;;;4.50;2.70;;;;;;;4.58;72.44;98066.34;232092;197;138179;-50
2024/01/01 12:23:24;;;;;;;4.70;2.90;;;;;;;4.52;72.35;98071.55;231792;202;153874;-47
2024/01/01 12:28:28;;;;;;;5.10;3.50;;;;;;;4.52;72.55;98075.09;232042;204;138166;-52
2024/01/01 12:33:31;;;;;;;3.70;3.00;;;;;;;4.56;72.45;98080.33;232169;201;140438;-52
2024/01/01 12:38:35;;;;;;;4.60;3.20;;;;;;;4.53;72.42;98074.34;232020;204;153485;-51
2024/01/01 12:43:38;;;;;;;4.70;2.90;;;;;;;4.49;72.61;98076.48;232094;204;137930;-50
2024/01/01 12:48:47;;;;;;;4.60;2.80;;;;;;;4.46;72.66;98073.63;232127;204;137416;-52
2024/01/01 12:53:54;;;;;;;3.70;2.70;;;;;;;4.41;72.76;98073.35;231925;197;153542;-50
2024/01/01 12:58:57;;;;;;;4.70;3.00;;;;;;;4.40;73.04;98074.81;232013;204;139417;-51
2024/01/01 13:04:00;;;;;;;4.80;3.30;;;;;;;4.47;73.26;98078.33;231952;204;137823;-47
2024/01/01 13:09:08;;;;;;;6.30;3.70;;;;;;;4.57;73.13;98080.43;232104;201;154484;-47
2024/01/01 13:14:11;;;;;;;4.80;3.30;;;;;;;4.64;73.13;98082.34;231868;204;140469;-49
2024/01/01 13:19:16;;;;;;;5.20;3.70;;;;;;;4.64;73.23;98080.59;231969;204;137950;-60
2024/01/01 13:24:19;;;;;;;6.30;4.30;;;;;;;4.61;73.49;98086.55;231776;204;154332;-60
2024/01/01 13:29:23;;;;;;;5.60;4.10;;;;;;;4.64;73.66;98092.20;232015;197;137777;-61
2024/01/01 13:34:26;;;;;;;4.40;3.90;;;;;;;4.73;73.95;98087.31;231975;197;138308;-61
2024/01/01 13:39:30;;;;;;;6.60;4.40;;;;;;;4.89;73.88;98089.45;232055;201;153184;-61
2024/01/01 13:44:34;;;;;;;9.70;5.90;;;;;;;4.98;73.70;98092.64;231909;201;137421;-60
2024/01/01 13:49:37;;;;;;;7.50;5.50;;;;;;;5.05;73.83;98092.64;232120;201;137271;-57
2024/01/01 13:54:42;;;;;;;8.20;6.40;;;;;;;5.06;73.78;98095.17;231725;198;153028;-58
2024/01/01 13:59:46;;;;;;;10.30;6.60;;;;;;;5.04;74.04;98102.02;231276;201;140172;-58
2024/01/01 14:04:49;;;;;;;11.90;7.90;;;;;;;5.01;74.42;98101.42;232129;198;138010;-60
2024/01/01 14:09:52;;;;;;;12.50;8.30;;;;;;;5.00;74.74;98099.05;232051;201;154023;-59
2024/01/01 14:14:55;;;;;;;12.10;8.00;;;;;;;5.05;75.12;98100.87;231966;204;138765;-60
2024/01/01 14:20:00;;;;;;;15.20;8.80;;;;;;;5.11;75.36;98106.88;232152;204;141164;-60
2024/01/01 14:25:04;;;;;;;12.90;9.50;;;;;;;5.20;75.39;98107.25;232103;201;153815;-60
2024/01/01 14:30:07;;;;;;;15.10;9.80;;;;;;;5.37;75.38;98110.86;232299;204;138549;-61
2024/01/01 14:35:12;;;;;;;14.50;10.20;;;;;;;5.45;75.40;98111.66;232090;204;138299;-59
2024/01/01 14:40:16;;;;;;;14.30;9.70;;;;;;;5.51;75.30;98114.83;232047;198;153139;-61
2024/01/01 14:45:19;;;;;;;14.20;10.50;;;;;;;5.53;75.60;98118.63;231661;197;140806;-60
2024/01/01 14:50:23;;;;;;;14.60;9.60;;;;;;;5.53;75.67;98125.45;232197;201;138157;-57
2024/01/01 14:55:28;;;;;;;15.00;9.20;;;;;;;5.59;75.98;98130.25;231933;199;153206;-58
2024/01/01 15:00:31;;;;;;;15.20;9.80;;;;;;;5.70;75.76;98125.72;232182;197;139105;-58
2024/01/01 15:05:35;;;;;;;14.20;10.30;;;;;;;5.73;76.17;98129.42;232050;204;137885;-57
2024/01/01 15:10:38;;;;;;;15.60;9.90;;;;;;;5.77;76.28;98130.06;232044;204;153315;-58
2024/01/01 15:15:42;;;;;;;12.90;9.30;;;;;;;5.80;76.09;98136.23;231902;198;138708;-59
2024/01/01 15:20:45;;;;;;;15.40;8.80;;;;;;;5.81;76.29;98138.14;232062;204;247902;-56
2024/01/01 15:25:49;;;;;;;14.70;9.30;;;;;;;5.79;76.61;98136.86;232103;197;153356;-58
2024/01/01 15:30:52;;;;;;;12.10;8.00;;;;;;;5.86;76.82;98138.19;232275;204;137888;-57
2024/01/01 15:35:56;;;;;;;13.30;9.20;;;;;;;6.00;76.90;98139.70;232219;197;137860;-58
2024/01/01 15:40:59;;;;;;;15.60;9.40;;;;;;;6.13;76.77;98142.27;232251;204;153785;-59
2024/01/01 15:46:06;;;;;;;14.00;9.00;;;;;;;6.24;76.92;98141.46;232100;198;137901;-59
2024/01/01 15:51:09;;;;;;;19.30;10.20;;;;;;;6.35;76.94;98148.73;232094;198;138323;-56
2024/01/01 15:56:18;;;;;;;282.90;189.90;;;;;;;6.51;77.71;98156.27;232049;204;153511;-58
2024/01/01 16:01:22;;;;;;;20.00;12.50;;;;;;;6.68;77.27;98164.74;232011;204;138132;-58
2024/01/01 16:06:25;;;;;;;14.90;8.70;;;;;;;6.70;76.79;98177.29;231937;204;138832;-58
2024/01/01 16:11:28;;;;;;;15.80;9.20;;;;;;;6.82;76.69;98189.30;232138;198;153022;-59
2024/01/01 16:16:34;;;;;;;17.10;9.90;;;;;;;6.82;76.59;98192.45;231939;201;138788;-58
2024/01/01 16:21:37;;;;;;;13.10;8.80;;;;;;;6.87;76.63;98196.39;231942;198;138548;-59
2024/01/01 16:26:40;;;;;;;16.90;9.70;;;;;;;6.90;76.60;98201.34;231707;197;153688;-57
2024/01/01 16:31:44;;;;;;;15.40;9.30;;;;;;;6.91;76.52;98205.13;232094;201;137074;-55
2024/01/01 16:36:55;;;;;;;14.70;8.50;;;;;;;6.83;76.81;98213.36;232179;204;138298;-56
2024/01/01 16:41:59;;;;;;;13.10;7.90;;;;;;;6.83;77.08;98220.95;232118;202;153710;-53
2024/01/01 16:47:02;;;;;;;16.00;8.60;;;;;;;6.90;77.16;98218.42;231776;197;138430;-55
2024/01/01 16:52:08;;;;;;;14.50;8.50;;;;;;;7.03;76.90;98217.45;231928;201;137466;-58
2024/01/01 16:57:11;;;;;;;13.90;8.70;;;;;;;7.08;76.47;98218.05;231803;198;153603;-58
2024/01/01 17:02:15;;;;;;;14.20;8.10;;;;;;;7.05;76.62;98226.52;231884;198;139143;-56
2024/01/01 17:07:18;;;;;;;13.30;8.60;;;;;;;7.05;76.67;98228.83;232094;204;138341;-60
2024/01/01 17:12:21;;;;;;;249.40;154.30;;;;;;;7.03;76.69;98238.29;232185;204;153016;-52
2024/01/01 17:17:25;;;;;;;15.40;9.10;;;;;;;7.13;76.73;98245.78;231951;197;138626;-57
2024/01/01 17:22:28;;;;;;;15.50;8.80;;;;;;;7.16;76.26;98249.67;232051;198;139527;-60
2024/01/01 17:27:32;;;;;;;13.90;9.40;;;;;;;7.22;76.15;98253.69;232069;201;153802;-58
2024/01/01 17:32:38;;;;;;;152.70;107.50;;;;;;;7.38;76.39;98261.02;232030;204;137543;-60
2024/01/01 17:37:41;;;;;;;15.50;10.20;;;;;;;7.45;75.78;98266.23;231965;200;138082;-59
2024/01/01 17:42:45;;;;;;;15.60;9.30;;;;;;;7.41;75.32;98268.77;232045;201;153238;-60
2024/01/01 17:47:48;;;;;;;13.80;8.00;;;;;;;7.36;75.31;98271.35;231814;202;138016;-62
2024/01/01 17:52:52;;;;;;;15.20;8.30;;;;;;;7.27;74.93;98274.00;232102;198;137591;-59
2024/01/01 17:57:55;;;;;;;19.10;10.50;;;;;;;7.30;75.87;98274.73;232047;202;153727;-58
2024/01/01 18:02:59;;;;;;;14.40;9.10;;;;;;;7.36;75.12;98273.50;231927;197;138457;-57
2024/01/01 18:08:03;;;;;;;14.80;9.20;;;;;;;7.31;74.87;98274.99;232066;204;138465;-57
2024/01/01 18:13:06;;;;;;;16.90;9.00;;;;;;;7.22;74.79;98274.17;231895;200;153747;-60
2024/01/01 18:18:12;;;;;;;16.50;9.50;;;;;;;7.19;74.94;98279.66;232131;204;137961;-59
2024/01/01 18:23:16;;;;;;;18.00;8.90;;;;;;;7.18;74.78;98289.60;231880;199;137142;-58
2024/01/01 18:28:20;;;;;;;14.50;8.70;;;;;;;7.18;74.70;98297.15;231900;204;153774;-62
2024/01/01 18:33:23;;;;;;;16.20;9.20;;;;;;;7.21;74.69;98300.88;232063;201;138282;-60
2024/01/01 18:38:26;;;;;;;16.40;9.30;;;;;;;7.30;74.36;98302.06;232029;201;137943;-59
2024/01/01 18:43:30;;;;;;;15.30;9.20;;;;;;;7.28;74.13;98302.02;231904;198;153928;-62
2024/01/01 18:48:34;;;;;;;18.50;9.40;;;;;;;7.28;74.28;98301.11;231979;197;138153;-61
2024/01/01 18:53:40;;;;;;;17.10;9.50;;;;;;;7.30;74.07;98301.73;231973;204;137271;-59
2024/01/01 18:58:48;;;;;;;16.20;9.50;;;;;;;7.29;74.01;98300.73;232026;198;154216;-60
2024/01/01 19:03:52;;;;;;;130.20;96.00;;;;;;;7.35;74.31;98301.09;232050;201;138651;-62
2024/01/01 19:09:03;;;;;;;18.80;11.50;;;;;;;7.52;74.30;98308.30;232106;204;140388;-59
2024/01/01 19:14:06;;;;;;;19.00;8.60;;;;;;;7.51;73.29;98315.77;232108;201;153040;-58
2024/01/01 19:19:09;;;;;;;17.80;9.10;;;;;;;7.53;73.03;98317.60;232229;204;141063;-59
2024/01/01 19:24:13;;;;;;;70.70;43.60;;;;;;;7.56;72.71;98322.37;232109;202;138248;-58
2024/01/01 19:29:17;;;;;;;21.40;11.40;;;;;;;7.64;73.47;98328.08;231995;197;153938;-60
2024/01/01 19:34:20;;;;;;;89.80;60.20;;;;;;;7.68;72.63;98329.78;231823;198;138089;-58
2024/01/01 19:39:24;;;;;;;19.50;11.00;;;;;;;7.70;72.78;98331.56;232198;204;138233;-59
2024/01/01 19:44:27;;;;;;;19.40;10.20;;;;;;;7.66;72.15;98335.02;232086;201;153542;-59
2024/01/01 19:49:30;;;;;;;16.10;9.30;;;;;;;7.59;71.99;98336.65;231868;204;137834;-58
2024/01/01 19:54:33;;;;;;;18.00;9.70;;;;;;;7.51;71.92;98332.88;232034;202;138698;-57
2024/01/01 19:59:40;;;;;;;16.20;8.80;;;;;;;7.50;72.07;98335.27;231905;204;153222;-59
2024/01/01 20:04:43;;;;;;;17.70;9.00;;;;;;;7.54;71.89;98341.38;232072;204;137250;-58
2024/01/01 20:09:47;;;;;;;17.70;9.60;;;;;;;7.55;71.65;98343.30;231966;201;138023;-58
2024/01/01 20:14:50;;;;;;;16.20;9.10;;;;;;;7.51;71.63;98341.58;231933;201;153062;-59
2024/01/01 20:19:53;;;;;;;16.80;9.50;;;;;;;7.55;71.57;98344.17;231908;200;138573;-61
2024/01/01 20:24:57;;;;;;;15.50;9.00;;;;;;;7.57;71.53;98339.08;231918;197;138428;-59
2024/01/01 20:30:00;;;;;;;15.70;9.30;;;;;;;7.53;71.41;98341.58;232007;197;154776;-60
2024/01/01 20:35:04;;;;;;;16.30;9.00;;;;;;;7.50;71.26;98348.30;231993;201;137537;-59
2024/01/01 20:40:08;;;;;;;16.60;9.30;;;;;;;7.45;71.17;98349.34;231978;198;139260;-58
2024/01/01 20:45:11;;;;;;;15.60;8.80;;;;;;;7.47;71.01;98348.87;231701;205;153544;-59
2024/01/01 20:50:15;;;;;;;19.30;9.20;;;;;;;7.51;70.75;98355.48;231711;197;138564;-57
2024/01/01 20:55:18;;;;;;;16.00;8.90;;;;;;;7.53;70.35;98352.73;232001;204;137940;-61
2024/01/01 21:00:21;;;;;;;17.50;9.50;;;;;;;7.52;70.29;98355.63;232037;204;154354;-58
2024/01/01 21:05:25;;;;;;;17.20;8.60;;;;;;;7.52;70.12;98360.05;231745;197;138665;-57
2024/01/01 21:10:28;;;;;;;18.00;8.90;;;;;;;7.51;69.92;98362.77;232134;198;137407;-58
2024/01/01 21:15:31;;;;;;;16.80;9.60;;;;;;;7.46;69.63;98362.33;231780;197;153859;-60
2024/01/01 21:20:35;;;;;;;19.20;9.80;;;;;;;7.46;69.66;98362.55;232048;204;138105;-62
2024/01/01 21:25:38;;;;;;;15.10;7.70;;;;;;;7.41;69.54;98369.36;232184;204;138307;-57
2024/01/01 21:30:41;;;;;;;12.90;7.50;;;;;;;7.41;69.39;98375.55;232232;204;153792;-58
2024/01/01 21:35:45;;;;;;;15.70;7.30;;;;;;;7.45;69.27;98374.95;232169;201;138925;-58
2024/01/01 21:40:50;;;;;;;16.00;7.60;;;;;;;7.53;69.13;98374.96;232088;204;138375;-58
2024/01/01 21:45:53;;;;;;;15.30;7.60;;;;;;;7.61;68.79;98370.29;231612;201;153077;-59
2024/01/01 21:50:57;;;;;;;13.50;6.60;;;;;;;7.54;68.58;98369.27;232070;204;138745;-59
2024/01/01 21:56:01;;;;;;;14.20;7.00;;;;;;;7.48;68.74;98368.40;232052;197;137434;-59
2024/01/01 22:01:04;;;;;;;14.60;7.30;;;;;;;7.47;68.53;98365.80;232063;197;153197;-58
2024/01/01 22:06:08;;;;;;;13.20;7.00;;;;;;;7.49;68.42;98366.23;232017;204;150610;-58
2024/01/01 22:11:18;;;;;;;15.70;8.10;;;;;;;7.49;68.25;98363.02;231925;204;138400;-60
2024/01/01 22:16:22;;;;;;;13.80;6.60;;;;;;;7.42;68.07;98356.25;232124;197;153240;-59
2024/01/01 22:21:25;;;;;;;15.00;6.80;;;;;;;7.41;68.24;98355.75;231987;204;137926;-59
2024/01/01 22:26:28;;;;;;;13.40;6.70;;;;;;;7.45;68.13;98355.48;231130;202;138850;-60
2024/01/01 22:31:37;;;;;;;12.50;6.70;;;;;;;7.47;67.98;98355.91;231954;204;153404;-57
2024/01/01 22:36:42;;;;;;;13.90;6.70;;;;;;;7.47;67.78;98357.50;232258;197;138564;-57
2024/01/01 22:41:45;;;;;;;14.60;6.10;;;;;;;7.48;67.73;98357.27;232033;204;137980;-57
2024/01/01 22:46:48;;;;;;;17.50;7.30;;;;;;;7.45;67.60;98358.71;232165;204;153708;-57
2024/01/01 22:51:51;;;;;;;14.00;6.90;;;;;;;7.43;67.65;98360.79;232040;198;140880;-60
2024/01/01 22:56:55;;;;;;;14.30;6.40;;;;;;;7.41;67.52;98356.98;232132;201;147928;-59
2024/01/01 23:01:59;;;;;;;13.00;6.20;;;;;;;7.39;67.45;98358.23;231968;204;153418;-57
2024/01/01 23:07:02;;;;;;;15.90;6.50;;;;;;;7.35;67.68;98359.79;232095;201;138699;-58
2024/01/01 23:12:06;;;;;;;16.30;6.80;;;;;;;7.35;67.57;98360.18;232264;204;138432;-59
2024/01/01 23:17:10;;;;;;;14.20;6.20;;;;;;;7.31;67.70;98363.38;232001;203;154110;-58
2024/01/01 23:22:14;;;;;;;14.00;6.60;;;;;;;7.31;67.71;98362.87;231615;205;138827;-58
2024/01/01 23:27:17;;;;;;;15.70;6.20;;;;;;;7.32;67.58;98358.39;231628;197;138667;-59